Time;durP1;ratioP1;P1;durP2;ratioP2;P2;SDS_P1;SDS_P2;PMS_P1;PMS_P2;Temp;Humidity;BMP_temperature;BMP_pressure;BME280_temperature;BME280_humidity;BME280_pressure;Samples;Min_cycle;Max_cycle;Signal;HPM_P1;HPM_P2
2022/01/18 00:00:15;;;;;;;19.80;10.83;;;5.00;99.90;;;;;;4974408;28;20168;-66
2022/01/18 00:02:40;;;;;;;11.97;9.33;;;5.00;99.90;;;;;;4974215;28;20444;-65
2022/01/18 00:05:12;;;;;;;11.23;9.00;;;5.20;99.90;;;;;;4973962;28;20424;-65
2022/01/18 00:07:38;;;;;;;13.23;10.80;;;5.20;99.90;;;;;;4974557;28;20654;-65
2022/01/18 00:10:04;;;;;;;12.07;8.63;;;5.20;99.90;;;;;;4974356;28;20463;-65
2022/01/18 00:12:54;;;;;;;11.27;9.20;;;5.30;99.90;;;;;;4974444;28;20529;-65
2022/01/18 00:23:21;;;;;;;15.13;10.97;;;5.30;99.90;;;;;;4957308;28;20917;-64
2022/01/18 00:25:51;;;;;;;15.70;11.40;;;5.30;99.90;;;;;;4973798;28;20516;-65
2022/01/18 00:28:18;;;;;;;13.20;9.70;;;5.40;99.90;;;;;;4972864;28;20444;-65
2022/01/18 00:31:20;;;;;;;12.60;10.30;;;5.40;99.90;;;;;;4974155;28;20463;-65
2022/01/18 00:36:10;;;;;;;19.13;9.83;;;5.40;99.90;;;;;;4973715;28;20463;-65
2022/01/18 00:38:47;;;;;;;13.13;10.53;;;5.40;99.90;;;;;;4982963;28;20709;-64
2022/01/18 00:41:14;;;;;;;12.90;11.57;;;5.30;99.90;;;;;;4973919;28;20537;-65
2022/01/18 00:43:41;;;;;;;14.10;10.10;;;5.30;99.90;;;;;;4973816;28;20498;-64
2022/01/18 00:46:07;;;;;;;14.50;11.23;;;5.30;99.90;;;;;;4973507;28;20431;-65
2022/01/18 00:48:35;;;;;;;18.43;11.80;;;5.40;99.90;;;;;;4973991;28;20439;-64
2022/01/18 00:51:03;;;;;;;17.70;12.23;;;5.50;99.90;;;;;;4971963;28;20268;-65
2022/01/18 00:53:32;;;;;;;16.60;12.20;;;5.60;99.90;;;;;;4966730;28;20443;-63
2022/01/18 00:58:36;;;;;;;16.57;10.90;;;5.60;99.90;;;;;;4973315;28;20804;-64
2022/01/18 01:01:02;;;;;;;15.07;10.97;;;5.60;99.90;;;;;;4972161;28;20558;-63
2022/01/18 01:03:27;;;;;;;17.93;11.90;;;5.50;99.90;;;;;;4973750;28;20519;-65
2022/01/18 01:05:53;;;;;;;13.43;11.17;;;5.50;99.90;;;;;;4973098;28;20175;-65
2022/01/18 01:08:19;;;;;;;15.23;11.20;;;5.60;99.90;;;;;;4973618;28;20181;-64
2022/01/18 01:10:45;;;;;;;17.10;11.60;;;5.70;99.90;;;;;;4973459;28;20250;-64
2022/01/18 01:13:13;;;;;;;15.60;11.70;;;5.70;99.90;;;;;;4973305;28;20255;-65
2022/01/18 01:45:23;;;;;;;12.80;10.60;;;5.70;99.90;;;;;;4972469;28;20435;-65
2022/01/18 01:47:51;;;;;;;16.00;10.83;;;5.70;99.90;;;;;;4973126;28;20438;-65
2022/01/18 01:50:20;;;;;;;17.40;11.50;;;5.70;99.90;;;;;;4972820;28;20888;-65
2022/01/18 01:52:50;;;;;;;21.50;11.67;;;5.70;99.90;;;;;;4972839;28;20961;-65
2022/01/18 01:55:18;;;;;;;17.30;11.40;;;5.70;99.90;;;;;;4970943;28;20435;-65
2022/01/18 01:57:44;;;;;;;16.37;12.43;;;5.70;99.90;;;;;;4972619;28;20491;-65
2022/01/18 02:00:15;;;;;;;15.23;10.83;;;5.70;99.90;;;;;;4972910;28;20443;-65
2022/01/18 02:02:41;;;;;;;17.60;11.27;;;5.60;99.90;;;;;;4978237;28;20959;-65
2022/01/18 02:05:08;;;;;;;16.50;11.77;;;5.70;99.90;;;;;;4978867;28;20490;-65
2022/01/18 02:07:34;;;;;;;15.60;11.07;;;5.60;99.90;;;;;;4978721;28;20803;-65
2022/01/18 02:10:00;;;;;;;13.97;10.47;;;5.70;99.90;;;;;;4977785;28;20450;-65
2022/01/18 02:12:25;;;;;;;15.20;12.40;;;5.70;99.90;;;;;;4979012;28;20204;-63
2022/01/18 02:14:57;;;;;;;15.90;12.00;;;5.50;99.90;;;;;;4979354;28;20176;-65
2022/01/18 02:22:53;;;;;;;17.80;12.70;;;5.70;99.90;;;;;;4979256;28;20450;-64
2022/01/18 02:25:18;;;;;;;17.90;12.93;;;5.70;99.90;;;;;;4978472;28;20957;-66
2022/01/18 02:27:44;;;;;;;15.43;11.60;;;5.70;99.90;;;;;;4978970;28;20637;-65
2022/01/18 02:30:10;;;;;;;16.63;11.93;;;5.70;99.90;;;;;;4979131;28;20176;-65
2022/01/18 02:32:36;;;;;;;18.60;11.40;;;5.60;99.90;;;;;;4979133;28;20184;-65
2022/01/18 02:35:01;;;;;;;14.20;11.80;;;5.70;99.90;;;;;;4978929;28;20927;-64
2022/01/18 02:37:27;;;;;;;18.67;12.83;;;5.70;99.90;;;;;;4978898;28;20231;-65
2022/01/18 02:39:53;;;;;;;16.77;11.40;;;5.80;99.90;;;;;;4979057;28;20665;-64
2022/01/18 02:42:27;;;;;;;14.37;11.20;;;5.80;99.90;;;;;;4978894;28;20210;-65
2022/01/18 02:44:53;;;;;;;16.00;11.50;;;5.80;99.90;;;;;;4978955;28;20428;-65
2022/01/18 02:47:20;;;;;;;16.40;11.63;;;5.70;99.90;;;;;;4978361;28;20439;-65
2022/01/18 02:49:47;;;;;;;19.40;13.37;;;5.70;99.90;;;;;;4979014;28;20571;-65
2022/01/18 02:52:13;;;;;;;18.93;12.73;;;5.70;99.90;;;;;;4978818;28;20467;-65
2022/01/18 02:54:39;;;;;;;17.93;12.53;;;5.80;99.90;;;;;;4977622;28;20431;-65
2022/01/18 02:57:10;;;;;;;13.90;10.50;;;5.90;99.90;;;;;;4978051;28;21084;-64
2022/01/18 02:59:48;;;;;;;15.40;11.93;;;5.80;99.90;;;;;;4979007;28;20173;-65
2022/01/18 03:05:09;;;;;;;16.23;12.27;;;5.80;99.90;;;;;;4976472;28;20434;-65
2022/01/18 03:07:35;;;;;;;21.50;12.40;;;5.90;99.90;;;;;;4978626;28;20446;-64
2022/01/18 03:10:00;;;;;;;20.63;12.97;;;5.80;99.90;;;;;;4978550;28;20440;-65
2022/01/18 03:12:26;;;;;;;15.40;13.13;;;5.80;99.90;;;;;;4977820;28;20474;-65
2022/01/18 03:14:52;;;;;;;20.33;13.70;;;5.80;99.90;;;;;;4974855;28;20267;-65
2022/01/18 03:17:17;;;;;;;19.20;13.30;;;5.80;99.90;;;;;;4975109;28;20278;-65
2022/01/18 03:19:43;;;;;;;16.43;12.37;;;5.80;99.90;;;;;;4975905;28;20233;-65
2022/01/18 03:22:08;;;;;;;17.47;12.97;;;5.70;99.90;;;;;;4975195;28;20204;-65
2022/01/18 03:24:54;;;;;;;14.10;10.40;;;5.70;99.90;;;;;;4975191;28;20180;-64
2022/01/18 03:30:07;;;;;;;19.60;12.40;;;5.70;99.90;;;;;;4975256;28;20817;-63
2022/01/18 03:32:34;;;;;;;22.80;14.57;;;5.70;99.90;;;;;;4975113;28;20474;-66
2022/01/18 03:34:59;;;;;;;17.33;12.10;;;5.60;99.90;;;;;;4974785;28;20439;-64
2022/01/18 03:37:25;;;;;;;21.00;14.70;;;5.60;99.90;;;;;;4975031;28;20459;-64
2022/01/18 03:39:50;;;;;;;19.87;14.30;;;5.70;99.90;;;;;;4975331;28;20196;-65
2022/01/18 03:45:23;;;;;;;17.20;12.17;;;5.60;99.90;;;;;;4962590;28;20242;-65
2022/01/18 03:47:49;;;;;;;19.83;14.63;;;5.60;99.90;;;;;;4974995;28;20451;-65
2022/01/18 03:50:16;;;;;;;18.53;13.47;;;5.60;99.90;;;;;;4974991;28;20444;-65
2022/01/18 03:52:43;;;;;;;19.30;14.00;;;5.60;99.90;;;;;;4974884;28;20188;-63
2022/01/18 03:55:12;;;;;;;20.07;14.27;;;5.50;99.90;;;;;;4974705;28;20991;-65
2022/01/18 03:57:38;;;;;;;23.17;15.50;;;5.40;99.90;;;;;;4975052;28;20455;-66
2022/01/18 04:00:06;;;;;;;24.83;16.63;;;5.30;99.90;;;;;;4974556;28;20444;-65
2022/01/18 04:02:33;;;;;;;19.83;14.50;;;5.40;99.90;;;;;;4968912;28;20176;-64
2022/01/18 04:04:59;;;;;;;22.50;15.40;;;5.40;99.90;;;;;;4974477;28;20428;-64
2022/01/18 04:07:25;;;;;;;27.07;14.50;;;5.60;99.90;;;;;;4974133;28;20449;-63
2022/01/18 04:09:50;;;;;;;20.50;14.50;;;5.60;99.90;;;;;;4974520;28;20431;-64
2022/01/18 04:12:16;;;;;;;22.20;14.53;;;5.60;99.90;;;;;;4973031;28;20200;-64
2022/01/18 04:14:42;;;;;;;19.20;13.97;;;5.70;99.90;;;;;;4974239;28;20184;-64
2022/01/18 04:17:20;;;;;;;21.67;15.00;;;5.80;99.90;;;;;;4974141;28;20230;-64
2022/01/18 04:27:49;;;;;;;22.10;15.53;;;5.80;99.90;;;;;;4960956;28;20482;-63
2022/01/18 04:30:15;;;;;;;22.60;16.53;;;5.80;99.90;;;;;;4973988;28;20440;-63
2022/01/18 04:32:40;;;;;;;25.50;15.17;;;5.70;99.90;;;;;;4974219;28;20490;-63
2022/01/18 04:35:06;;;;;;;21.53;14.10;;;5.80;99.90;;;;;;4973826;28;20183;-65
2022/01/18 04:37:32;;;;;;;20.13;14.40;;;5.70;99.90;;;;;;4974011;28;20200;-64
2022/01/18 04:39:58;;;;;;;25.50;15.93;;;5.70;99.90;;;;;;4974510;28;20172;-64
2022/01/18 04:42:58;;;;;;;31.00;17.23;;;5.70;99.90;;;;;;4974024;28;20204;-64
2022/01/18 04:50:56;;;;;;;26.00;18.67;;;5.80;99.90;;;;;;4973513;28;20475;-64
2022/01/18 04:53:21;;;;;;;27.20;16.17;;;5.60;99.90;;;;;;4965877;28;21052;-64
2022/01/18 04:55:53;;;;;;;26.00;17.20;;;5.60;99.90;;;;;;4973281;28;20466;-64
2022/01/18 04:58:19;;;;;;;22.70;16.57;;;5.60;99.90;;;;;;4973605;28;20196;-65
2022/01/18 05:00:45;;;;;;;25.67;17.70;;;5.50;99.90;;;;;;4973371;28;20467;-64
2022/01/18 05:03:10;;;;;;;24.93;14.77;;;5.60;99.90;;;;;;4973691;28;20440;-63
2022/01/18 05:05:37;;;;;;;22.13;17.47;;;5.70;99.90;;;;;;4973181;28;20173;-64
2022/01/18 05:08:05;;;;;;;26.27;16.20;;;5.60;99.90;;;;;;4973503;28;20267;-65
2022/01/18 05:10:32;;;;;;;27.00;18.57;;;5.60;99.90;;;;;;4973454;28;20518;-64
2022/01/18 05:12:59;;;;;;;24.87;16.67;;;5.70;99.90;;;;;;4973566;28;20530;-65
2022/01/18 05:23:08;;;;;;;26.60;18.90;;;5.60;99.90;;;;;;4973401;28;20951;-63
2022/01/18 05:25:35;;;;;;;30.63;18.30;;;5.60;99.90;;;;;;4972874;28;20514;-64
2022/01/18 05:28:03;;;;;;;23.30;16.83;;;5.60;99.90;;;;;;4973054;28;20184;-65
2022/01/18 05:30:29;;;;;;;26.07;17.47;;;5.60;99.90;;;;;;4972601;28;20470;-64
2022/01/18 05:32:55;;;;;;;26.57;17.20;;;5.50;99.90;;;;;;4973417;28;20815;-64
2022/01/18 05:35:21;;;;;;;26.43;17.40;;;5.60;99.90;;;;;;4972538;28;20489;-65
2022/01/18 05:37:48;;;;;;;28.87;17.83;;;5.60;99.90;;;;;;4972663;28;20463;-66
2022/01/18 05:40:15;;;;;;;30.63;17.73;;;5.50;99.90;;;;;;4972362;28;20204;-64
2022/01/18 05:42:41;;;;;;;30.77;18.30;;;5.50;99.90;;;;;;4972997;28;20455;-64
2022/01/18 05:45:08;;;;;;;31.20;18.27;;;5.50;99.90;;;;;;4972541;28;20497;-65
2022/01/18 05:47:34;;;;;;;28.23;17.03;;;5.50;99.90;;;;;;4973048;28;20440;-65
2022/01/18 05:50:00;;;;;;;24.13;17.63;;;5.50;99.90;;;;;;4972701;28;20440;-65
2022/01/18 05:52:27;;;;;;;24.73;17.80;;;5.50;99.90;;;;;;4957536;28;20200;-64
2022/01/18 05:54:52;;;;;;;27.80;18.43;;;5.50;99.90;;;;;;4972442;28;20646;-64
2022/01/18 05:57:18;;;;;;;29.03;19.10;;;5.60;99.90;;;;;;4972565;28;20482;-64
2022/01/18 05:59:46;;;;;;;33.13;19.87;;;5.50;99.90;;;;;;4972523;28;20211;-63
2022/01/18 06:02:31;;;;;;;30.93;19.07;;;5.50;99.90;;;;;;4972624;28;20403;-63
2022/01/18 06:07:42;;;;;;;27.83;17.50;;;5.50;99.90;;;;;;4972826;28;20506;-64
2022/01/18 06:10:08;;;;;;;34.53;20.47;;;5.50;99.90;;;;;;4967620;28;20490;-64
2022/01/18 06:12:33;;;;;;;26.90;19.53;;;5.50;99.90;;;;;;4972922;28;20255;-63
2022/01/18 06:14:59;;;;;;;28.90;19.40;;;5.50;99.90;;;;;;4972366;28;20199;-64
2022/01/18 06:17:25;;;;;;;31.07;16.57;;;5.50;99.90;;;;;;4973427;28;20203;-63
2022/01/18 06:19:51;;;;;;;25.03;16.40;;;5.50;99.90;;;;;;4972293;28;20180;-63
2022/01/18 06:22:17;;;;;;;24.60;17.10;;;5.50;99.90;;;;;;4972288;28;20495;-63
2022/01/18 06:24:43;;;;;;;29.40;17.73;;;5.50;99.90;;;;;;4972415;28;20176;-63
2022/01/18 06:27:09;;;;;;;30.07;16.90;;;5.50;99.90;;;;;;4972156;28;20439;-64
2022/01/18 06:29:35;;;;;;;24.47;18.03;;;5.60;99.90;;;;;;4989141;28;20560;-63
2022/01/18 06:32:01;;;;;;;26.27;16.60;;;5.50;99.90;;;;;;4979259;28;20472;-64
2022/01/18 06:34:27;;;;;;;30.97;18.43;;;5.50;99.90;;;;;;4972162;28;20439;-63
2022/01/18 06:36:53;;;;;;;27.87;17.40;;;5.40;99.90;;;;;;4972164;28;20176;-63
2022/01/18 06:39:19;;;;;;;27.20;17.00;;;5.40;99.90;;;;;;4972574;28;20965;-63
2022/01/18 06:41:45;;;;;;;22.60;17.50;;;5.50;99.90;;;;;;4971319;28;20338;-63
2022/01/18 06:44:11;;;;;;;26.90;18.53;;;5.40;99.90;;;;;;4968069;28;20452;-63
2022/01/18 06:46:36;;;;;;;26.30;17.37;;;5.30;99.90;;;;;;4973188;28;20180;-64
2022/01/18 06:49:02;;;;;;;32.63;19.80;;;5.30;99.90;;;;;;4973934;28;20188;-64
2022/01/18 06:51:27;;;;;;;27.47;18.03;;;5.40;99.90;;;;;;4976880;28;20331;-64
2022/01/18 06:53:53;;;;;;;26.23;17.40;;;5.40;99.90;;;;;;4975940;28;20193;-64
2022/01/18 06:56:20;;;;;;;25.63;17.53;;;5.40;99.90;;;;;;4977888;28;20215;-64
2022/01/18 06:58:45;;;;;;;27.83;17.70;;;5.40;99.90;;;;;;4976647;28;20212;-63
2022/01/18 07:01:13;;;;;;;25.90;16.03;;;5.40;99.90;;;;;;4976392;28;20478;-62
2022/01/18 07:03:40;;;;;;;25.90;17.20;;;5.40;99.90;;;;;;4978796;28;20518;-63
2022/01/18 07:06:05;;;;;;;32.50;20.83;;;5.30;99.90;;;;;;4975333;28;20435;-63
2022/01/18 07:08:31;;;;;;;31.40;19.07;;;5.30;99.90;;;;;;4981336;28;20520;-64
2022/01/18 07:10:57;;;;;;;35.10;20.70;;;5.30;99.90;;;;;;4974381;28;20211;-63
2022/01/18 07:13:23;;;;;;;34.13;20.73;;;5.20;99.90;;;;;;4973733;28;20207;-63
2022/01/18 07:15:49;;;;;;;32.80;19.40;;;5.20;99.90;;;;;;4973540;28;20949;-63
2022/01/18 07:18:14;;;;;;;41.00;21.40;;;5.20;99.90;;;;;;4975356;28;20204;-62
2022/01/18 07:20:41;;;;;;;32.57;20.77;;;5.20;99.90;;;;;;4974975;28;20231;-64
2022/01/18 07:23:08;;;;;;;30.47;20.13;;;5.30;99.90;;;;;;4974980;28;20183;-64
2022/01/18 07:25:34;;;;;;;29.27;19.63;;;5.30;99.90;;;;;;4975240;28;20450;-64
2022/01/18 07:27:59;;;;;;;28.47;18.70;;;5.30;99.90;;;;;;4974868;28;20933;-63
2022/01/18 07:30:25;;;;;;;27.97;18.30;;;5.30;99.90;;;;;;4968535;28;20474;-65
2022/01/18 07:32:51;;;;;;;29.90;19.57;;;5.30;99.90;;;;;;4975015;28;20191;-65
2022/01/18 07:35:17;;;;;;;27.97;18.70;;;5.40;99.90;;;;;;4975001;28;20176;-65
2022/01/18 07:37:43;;;;;;;32.20;19.93;;;5.40;99.90;;;;;;4978159;28;20207;-67
2022/01/18 07:40:09;;;;;;;35.87;21.17;;;5.40;99.90;;;;;;4974117;28;20427;-65
2022/01/18 07:42:35;;;;;;;32.87;20.77;;;5.40;99.90;;;;;;4967537;28;20180;-65
2022/01/18 07:45:00;;;;;;;28.30;18.47;;;5.40;99.90;;;;;;4955238;28;20448;-63
2022/01/18 07:47:26;;;;;;;29.57;19.80;;;5.50;99.90;;;;;;4949507;28;20451;-63
2022/01/18 07:49:51;;;;;;;32.87;20.90;;;5.50;99.90;;;;;;4972549;28;20264;-64
2022/01/18 07:52:17;;;;;;;33.33;22.83;;;5.60;99.90;;;;;;4972535;28;20259;-63
2022/01/18 07:54:43;;;;;;;26.13;17.63;;;5.80;99.90;;;;;;4970625;28;20180;-64
2022/01/18 07:57:11;;;;;;;27.30;17.90;;;6.00;99.90;;;;;;4969866;28;20198;-63
2022/01/18 07:59:36;;;;;;;23.30;16.10;;;6.20;99.90;;;;;;4973767;28;20486;-63
2022/01/18 08:02:02;;;;;;;29.63;17.87;;;6.50;99.90;;;;;;4974307;28;20975;-63
2022/01/18 08:04:27;;;;;;;24.50;17.30;;;6.80;99.90;;;;;;4968943;28;20193;-64
2022/01/18 08:06:53;;;;;;;24.23;16.80;;;7.20;99.90;;;;;;4972818;28;20676;-63
2022/01/18 08:09:19;;;;;;;24.93;18.40;;;7.60;99.90;;;;;;4974205;28;20200;-64
2022/01/18 08:11:46;;;;;;;27.77;15.60;;;8.10;99.90;;;;;;4973916;28;20215;-63
2022/01/18 08:14:13;;;;;;;21.47;15.97;;;8.70;99.90;;;;;;4970464;28;20959;-63
2022/01/18 08:19:12;;;;;;;24.90;16.03;;;9.80;99.90;;;;;;4973736;28;20471;-64
2022/01/18 08:21:37;;;;;;;19.97;14.00;;;10.40;99.90;;;;;;4973876;28;20530;-64
2022/01/18 08:24:03;;;;;;;21.30;15.37;;;10.60;99.90;;;;;;4971930;28;20188;-63
2022/01/18 08:26:29;;;;;;;22.37;14.97;;;10.30;99.90;;;;;;4970450;28;20630;-64
2022/01/18 08:28:54;;;;;;;20.33;14.40;;;10.60;99.90;;;;;;4973375;28;20180;-65
2022/01/18 08:31:20;;;;;;;19.00;13.17;;;10.40;99.90;;;;;;4973710;28;20701;-64
2022/01/18 08:33:45;;;;;;;17.33;13.07;;;9.80;99.90;;;;;;4972981;28;20191;-64
2022/01/18 08:36:11;;;;;;;17.30;13.30;;;9.40;99.90;;;;;;4965681;28;20188;-64
2022/01/18 08:38:37;;;;;;;17.13;13.00;;;8.90;99.90;;;;;;4972407;28;20203;-63
2022/01/18 08:41:04;;;;;;;22.13;14.00;;;8.50;99.90;;;;;;4973914;28;20199;-63
2022/01/18 08:43:31;;;;;;;16.80;12.13;;;8.20;99.90;;;;;;4973284;28;20800;-66
2022/01/18 08:46:00;;;;;;;19.10;13.77;;;7.90;99.90;;;;;;4966753;28;20944;-63
2022/01/18 08:48:26;;;;;;;22.57;14.90;;;7.80;99.90;;;;;;4972111;28;20936;-63
2022/01/18 08:50:51;;;;;;;21.20;15.03;;;7.80;99.90;;;;;;4973456;28;20459;-63
2022/01/18 08:53:17;;;;;;;23.73;14.90;;;7.70;99.90;;;;;;4973160;28;20192;-65
2022/01/18 08:55:42;;;;;;;20.13;14.80;;;7.70;99.90;;;;;;4966523;28;20196;-65
2022/01/18 08:58:09;;;;;;;25.00;16.20;;;7.80;99.90;;;;;;4972808;28;20208;-65
2022/01/18 09:00:35;;;;;;;22.00;15.20;;;7.80;99.90;;;;;;4973158;28;20235;-65
2022/01/18 09:03:02;;;;;;;18.47;14.60;;;7.80;99.90;;;;;;4972391;28;20436;-66
2022/01/18 09:05:28;;;;;;;19.67;15.37;;;7.70;99.90;;;;;;4966209;28;20444;-65
2022/01/18 09:07:53;;;;;;;20.57;15.23;;;7.70;99.90;;;;;;4969978;28;20463;-65
2022/01/18 09:10:23;;;;;;;28.03;18.13;;;7.80;99.90;;;;;;4969187;28;20230;-65
2022/01/18 09:12:48;;;;;;;19.53;15.27;;;7.80;99.90;;;;;;4966101;28;20196;-65
2022/01/18 09:15:14;;;;;;;21.23;14.50;;;7.70;99.90;;;;;;4958146;28;20447;-65
2022/01/18 09:17:41;;;;;;;20.70;15.03;;;7.40;99.90;;;;;;4972269;28;20200;-65
2022/01/18 09:20:09;;;;;;;21.17;16.10;;;7.30;99.90;;;;;;4970914;28;20214;-65
2022/01/18 09:22:38;;;;;;;19.70;14.53;;;7.50;99.90;;;;;;4972906;28;20454;-64
2022/01/18 09:25:06;;;;;;;21.03;14.93;;;7.80;99.90;;;;;;4966182;28;20448;-64
2022/01/18 09:27:32;;;;;;;19.07;14.07;;;8.00;99.90;;;;;;4973017;28;20436;-65
2022/01/18 09:29:57;;;;;;;16.90;13.30;;;8.40;99.90;;;;;;4968266;28;20816;-65
2022/01/18 09:32:23;;;;;;;22.33;14.00;;;8.90;99.90;;;;;;4972068;28;20219;-65
2022/01/18 09:34:50;;;;;;;16.93;14.03;;;9.60;99.90;;;;;;4959557;28;20194;-62
2022/01/18 09:37:15;;;;;;;23.00;15.37;;;9.80;99.90;;;;;;4968328;28;20569;-65
2022/01/18 09:39:41;;;;;;;18.20;13.70;;;9.90;99.90;;;;;;4968399;28;20458;-66
2022/01/18 09:42:08;;;;;;;21.50;15.07;;;10.20;99.90;;;;;;4966945;28;20212;-65
2022/01/18 09:44:33;;;;;;;19.57;14.40;;;10.20;99.90;;;;;;4963829;28;20191;-65
2022/01/18 09:46:59;;;;;;;16.73;11.60;;;10.80;99.90;;;;;;4968625;28;20439;-66
2022/01/18 09:49:24;;;;;;;16.37;11.77;;;11.20;99.90;;;;;;4969851;28;20187;-65
2022/01/18 09:51:50;;;;;;;17.33;12.80;;;11.30;99.90;;;;;;4969218;28;20222;-65
2022/01/18 09:54:17;;;;;;;16.20;12.27;;;12.00;99.90;;;;;;4965682;28;20713;-66
2022/01/18 09:56:43;;;;;;;16.83;13.00;;;12.30;99.90;;;;;;4966109;28;20820;-66
2022/01/18 09:59:09;;;;;;;16.20;11.87;;;12.10;99.90;;;;;;4969557;28;20467;-66
2022/01/18 10:01:35;;;;;;;15.30;11.80;;;11.50;99.90;;;;;;4969290;28;20463;-66
2022/01/18 10:04:22;;;;;;;15.20;12.87;;;10.90;99.90;;;;;;4967173;28;20658;-66
2022/01/18 10:06:54;;;;;;;13.73;12.33;;;10.20;99.90;;;;;;4961333;28;20451;-65
2022/01/18 10:09:21;;;;;;;18.73;13.17;;;9.60;99.90;;;;;;4966353;28;20443;-66
2022/01/18 10:12:11;;;;;;;20.20;15.53;;;9.20;99.90;;;;;;4968813;28;20463;-66
2022/01/18 10:14:55;;;;;;;16.50;13.30;;;8.90;99.90;;;;;;4953057;28;20506;-67
2022/01/18 10:17:36;;;;;;;21.00;13.27;;;9.10;99.90;;;;;;4969041;28;20447;-66
2022/01/18 10:20:07;;;;;;;19.73;14.47;;;10.10;99.90;;;;;;4969037;28;20824;-67
2022/01/18 10:22:42;;;;;;;14.80;12.90;;;12.30;99.90;;;;;;4969789;28;20457;-67
2022/01/18 10:25:26;;;;;;;16.73;13.23;;;15.30;99.90;;;;;;4966755;28;20451;-67
2022/01/18 10:27:54;;;;;;;13.87;12.27;;;17.90;98.40;;;;;;4971537;28;20489;-67
2022/01/18 10:30:39;;;;;;;17.00;13.77;;;20.00;91.60;;;;;;4972524;28;20538;-64
2022/01/18 10:33:16;;;;;;;17.07;15.27;;;21.60;82.80;;;;;;4976019;28;20443;-65
2022/01/18 10:36:14;;;;;;;17.40;14.83;;;22.20;72.60;;;;;;4967497;28;20839;-65
2022/01/18 10:38:42;;;;;;;15.37;13.77;;;22.60;67.10;;;;;;4936643;28;20559;-65
2022/01/18 10:41:28;;;;;;;17.07;13.57;;;22.40;65.50;;;;;;4975642;28;20493;-67
2022/01/18 10:44:07;;;;;;;14.63;11.60;;;21.50;64.60;;;;;;4973997;28;20925;-66
2022/01/18 10:46:39;;;;;;;15.30;13.67;;;18.60;69.00;;;;;;4971226;28;20493;-66
2022/01/18 10:49:06;;;;;;;14.77;11.33;;;16.20;78.50;;;;;;4975376;28;20440;-65
2022/01/18 10:51:35;;;;;;;10.47;9.37;;;15.10;84.10;;;;;;4975107;28;20451;-66
2022/01/18 10:54:05;;;;;;;15.73;12.73;;;14.00;89.60;;;;;;4970513;28;20446;-66
2022/01/18 10:56:44;;;;;;;16.17;11.70;;;13.00;93.60;;;;;;4967042;28;20708;-66
2022/01/18 10:59:24;;;;;;;12.23;9.10;;;12.90;96.00;;;;;;4975208;28;21032;-66
2022/01/18 11:02:04;;;;;;;12.33;8.70;;;12.70;95.60;;;;;;4974338;28;20835;-66
2022/01/18 11:04:29;;;;;;;12.40;9.20;;;11.50;98.70;;;;;;4969956;28;20454;-67
2022/01/18 11:06:57;;;;;;;13.17;10.00;;;10.80;99.90;;;;;;4974286;28;20424;-67
2022/01/18 11:09:23;;;;;;;16.63;10.83;;;10.40;99.90;;;;;;4969960;28;20704;-67
2022/01/18 11:11:49;;;;;;;17.00;11.70;;;10.20;99.90;;;;;;4975816;28;20530;-67
2022/01/18 11:14:18;;;;;;;17.17;11.37;;;9.90;99.90;;;;;;4972877;28;20566;-68
2022/01/18 11:16:46;;;;;;;14.10;11.57;;;9.80;99.90;;;;;;4973064;28;20557;-67
2022/01/18 11:19:28;;;;;;;14.87;11.70;;;9.80;99.90;;;;;;4975747;28;20471;-65
2022/01/18 11:22:02;;;;;;;9.90;8.10;;;9.80;99.90;;;;;;4975604;28;20995;-65
2022/01/18 11:24:28;;;;;;;10.50;6.30;;;9.80;99.90;;;;;;4970448;28;20432;-67
2022/01/18 11:26:55;;;;;;;7.70;6.90;;;9.40;99.90;;;;;;4965455;28;20423;-66
2022/01/18 11:29:21;;;;;;;7.03;6.13;;;9.40;99.90;;;;;;4971577;28;20443;-66
2022/01/18 11:31:49;;;;;;;9.70;7.73;;;10.80;99.90;;;;;;4972358;28;20626;-65
2022/01/18 11:34:41;;;;;;;12.10;9.70;;;13.10;99.90;;;;;;4968581;28;20442;-66
2022/01/18 11:37:33;;;;;;;16.07;11.30;;;13.60;99.90;;;;;;4971395;28;20625;-65
2022/01/18 11:40:01;;;;;;;13.97;10.17;;;13.60;99.90;;;;;;4972400;28;20463;-65
2022/01/18 11:42:50;;;;;;;14.53;11.60;;;12.80;99.90;;;;;;4972155;28;20945;-65
2022/01/18 11:45:24;;;;;;;12.83;10.77;;;12.10;99.90;;;;;;4965828;28;20440;-65
2022/01/18 11:48:05;;;;;;;13.20;10.27;;;11.50;99.90;;;;;;4972157;28;20423;-65
2022/01/18 11:50:40;;;;;;;16.80;10.53;;;10.90;99.90;;;;;;4972303;28;20443;-65
2022/01/18 11:56:07;;;;;;;14.97;10.67;;;10.10;99.90;;;;;;4930203;28;20435;-65
2022/01/18 11:58:33;;;;;;;16.80;10.07;;;9.80;99.90;;;;;;4952556;29;20830;-65
2022/01/18 12:01:01;;;;;;;17.30;10.53;;;9.50;99.90;;;;;;4959851;28;20470;-64
2022/01/18 12:03:47;;;;;;;18.17;10.93;;;9.10;99.90;;;;;;4971998;28;20179;-65
2022/01/18 12:06:13;;;;;;;15.20;10.90;;;8.90;99.90;;;;;;4965394;28;20522;-65
2022/01/18 12:08:43;;;;;;;14.57;10.53;;;9.00;99.90;;;;;;4971848;28;20550;-64
2022/01/18 12:11:31;;;;;;;11.13;9.23;;;9.10;99.90;;;;;;4971698;28;20307;-65
2022/01/18 12:13:59;;;;;;;18.00;12.03;;;9.30;99.90;;;;;;4965106;28;20443;-66
2022/01/18 12:16:29;;;;;;;15.43;11.10;;;9.60;99.90;;;;;;4966497;28;20458;-66
2022/01/18 12:18:59;;;;;;;13.90;9.77;;;9.30;99.90;;;;;;4971537;28;20469;-65
2022/01/18 12:21:28;;;;;;;13.30;9.57;;;9.00;99.90;;;;;;4970009;28;20459;-65
2022/01/18 12:23:56;;;;;;;12.53;9.90;;;8.60;99.90;;;;;;4968485;28;20465;-65
2022/01/18 12:34:30;;;;;;;9.50;7.13;;;8.70;99.90;;;;;;4968801;28;20834;-65
2022/01/18 12:37:07;;;;;;;10.93;6.80;;;8.70;99.90;;;;;;4969654;28;20438;-65
2022/01/18 12:39:55;;;;;;;13.57;7.73;;;9.00;99.90;;;;;;4971042;28;20520;-65
2022/01/18 12:45:33;;;;;;;11.63;8.20;;;12.70;99.90;;;;;;4965183;28;20519;-65
2022/01/18 12:48:02;;;;;;;16.47;8.97;;;11.90;99.90;;;;;;4963012;28;20466;-66
2022/01/18 12:50:34;;;;;;;11.00;8.23;;;10.80;99.90;;;;;;4970955;28;20452;-65
2022/01/18 12:53:03;;;;;;;10.73;8.23;;;9.70;99.90;;;;;;4968131;28;20841;-65
2022/01/18 12:55:35;;;;;;;11.40;8.23;;;9.00;99.90;;;;;;4963939;28;20450;-65
2022/01/18 12:58:11;;;;;;;10.20;7.90;;;8.70;99.90;;;;;;4969959;28;20479;-65
2022/01/18 13:00:40;;;;;;;12.00;8.37;;;8.50;99.90;;;;;;4970222;28;20471;-65
2022/01/18 13:03:06;;;;;;;9.33;7.40;;;8.80;99.90;;;;;;4970244;28;20435;-66
2022/01/18 13:05:40;;;;;;;10.27;8.13;;;11.40;99.90;;;;;;4963163;28;20456;-66
2022/01/18 13:08:08;;;;;;;7.97;7.03;;;14.80;99.90;;;;;;4969826;28;20852;-66
2022/01/18 13:10:36;;;;;;;11.03;7.70;;;17.40;94.10;;;;;;4969906;28;20482;-66
2022/01/18 13:13:02;;;;;;;11.43;7.90;;;17.10;91.90;;;;;;4970217;28;20452;-65
2022/01/18 13:15:49;;;;;;;9.70;6.77;;;15.40;93.00;;;;;;4963205;28;20530;-65
2022/01/18 13:23:53;;;;;;;8.00;6.47;;;10.30;99.90;;;;;;4960071;28;20442;-65
2022/01/18 13:26:30;;;;;;;6.00;5.40;;;9.60;99.90;;;;;;4959267;28;20819;-65
2022/01/18 13:29:09;;;;;;;6.77;5.30;;;9.20;99.90;;;;;;4965275;28;20823;-65
2022/01/18 13:31:35;;;;;;;8.90;5.20;;;8.80;99.90;;;;;;4967833;28;20470;-65
2022/01/18 13:34:01;;;;;;;6.60;4.40;;;8.60;99.90;;;;;;4971501;28;20817;-65
2022/01/18 13:36:33;;;;;;;4.30;3.90;;;8.30;99.90;;;;;;4962473;28;20179;-65
2022/01/18 13:39:31;;;;;;;8.80;3.90;;;8.00;99.90;;;;;;4970802;28;20470;-65
2022/01/18 13:42:01;;;;;;;7.93;4.27;;;7.70;99.90;;;;;;4968463;28;20550;-66
2022/01/18 13:44:29;;;;;;;5.87;4.07;;;7.50;99.90;;;;;;4963249;28;20960;-65
2022/01/18 13:46:55;;;;;;;12.80;5.17;;;7.30;99.90;;;;;;4963820;28;20448;-65
2022/01/18 13:49:24;;;;;;;7.47;4.50;;;7.20;99.90;;;;;;4969131;28;20454;-64
2022/01/18 13:52:28;;;;;;;7.40;4.53;;;7.20;99.90;;;;;;4967862;28;20469;-65
2022/01/18 13:54:54;;;;;;;12.93;5.27;;;7.40;99.90;;;;;;4924835;28;20462;-65
2022/01/18 13:57:21;;;;;;;10.77;6.10;;;7.40;99.90;;;;;;4971172;28;20447;-66
2022/01/18 13:59:49;;;;;;;19.83;5.80;;;7.20;99.90;;;;;;4972152;28;20169;-65
2022/01/18 14:02:22;;;;;;;19.87;5.73;;;7.10;99.90;;;;;;4972180;28;20456;-65
2022/01/18 14:05:06;;;;;;;13.03;5.00;;;7.00;99.90;;;;;;4966101;28;20852;-65
2022/01/18 14:07:31;;;;;;;15.00;7.67;;;6.90;99.90;;;;;;4971319;28;20462;-66
2022/01/18 14:10:01;;;;;;;7.40;4.40;;;7.00;99.90;;;;;;4969147;28;20427;-66
2022/01/18 14:12:34;;;;;;;8.40;4.53;;;7.10;99.90;;;;;;4968915;28;20195;-65
2022/01/18 14:15:00;;;;;;;5.57;4.50;;;7.30;99.90;;;;;;4960864;28;20439;-65
2022/01/18 14:17:26;;;;;;;9.07;4.97;;;7.30;99.90;;;;;;4971727;28;20498;-65
2022/01/18 14:20:13;;;;;;;9.87;4.43;;;7.30;99.90;;;;;;4971977;28;20530;-65
2022/01/18 14:22:39;;;;;;;7.33;4.80;;;7.30;99.90;;;;;;4970436;28;20846;-66
2022/01/18 14:25:07;;;;;;;5.20;4.40;;;7.30;99.90;;;;;;4956706;28;20531;-65
2022/01/18 14:27:43;;;;;;;10.17;4.70;;;7.30;99.90;;;;;;4966354;28;20443;-66
2022/01/18 14:30:25;;;;;;;8.90;4.80;;;7.30;99.90;;;;;;4972352;28;20442;-64